Munchen, Germany (EDDM) 48-21N 011-47E
May 27, 2024 - 06:50 PM EDT / 2024.05.27 2250 UTC
Wind: from the SW (230 degrees) at 8 MPH (7 KT):0
Visibility: greater than 7 mile(s):0
Sky conditions: mostly cloudy
Weather: light rain
Temperature: 55 F (13 C)
Dew Point: 55 F (13 C)
Relative Humidity: 100%
Pressure (altimeter): 30.06 in. Hg (1018 hPa)
ob: EDDM 272250Z AUTO 23007KT 9999 -RA SCT018 BKN027 BKN041 13/13 Q1018 TEMPO RA BKN014
cycle: 23